Map

Track Data

SID SEASON NUMBER BASIN SUBBASIN NAME ISO_TIME NATURE LAT LON WMO_WIND WMO_PRES WMO_AGENCY TRACK_TYPE DIST2LAND LANDFALL IFLAG USA_AGENCY USA_ATCF_ID USA_LAT USA_LON USA_RECORD USA_STATUS USA_WIND USA_PRES USA_SSHS USA_R34_NE USA_R34_SE USA_R34_SW USA_R34_NW USA_R50_NE USA_R50_SE USA_R50_SW USA_R50_NW USA_R64_NE USA_R64_SE USA_R64_SW USA_R64_NW USA_POCI USA_ROCI USA_RMW USA_EYE TOKYO_LAT TOKYO_LON TOKYO_GRADE TOKYO_WIND TOKYO_PRES TOKYO_R50_DIR TOKYO_R50_LONG TOKYO_R50_SHORT TOKYO_R30_DIR TOKYO_R30_LONG TOKYO_R30_SHORT TOKYO_LAND CMA_LAT CMA_LON CMA_CAT CMA_WIND CMA_PRES HKO_LAT HKO_LON HKO_CAT HKO_WIND HKO_PRES NEWDELHI_LAT NEWDELHI_LON NEWDELHI_GRADE NEWDELHI_WIND NEWDELHI_PRES NEWDELHI_CI NEWDELHI_DP NEWDELHI_POCI REUNION_LAT REUNION_LON REUNION_TYPE REUNION_WIND REUNION_PRES REUNION_TNUM REUNION_CI REUNION_RMW REUNION_R34_NE REUNION_R34_SE REUNION_R34_SW REUNION_R34_NW REUNION_R50_NE REUNION_R50_SE REUNION_R50_SW REUNION_R50_NW REUNION_R64_NE REUNION_R64_SE REUNION_R64_SW REUNION_R64_NW BOM_LAT BOM_LON BOM_TYPE BOM_WIND BOM_PRES BOM_TNUM BOM_CI BOM_RMW BOM_R34_NE BOM_R34_SE BOM_R34_SW BOM_R34_NW BOM_R50_NE BOM_R50_SE BOM_R50_SW BOM_R50_NW BOM_R64_NE BOM_R64_SE BOM_R64_SW BOM_R64_NW BOM_ROCI BOM_POCI BOM_EYE BOM_POS_METHOD BOM_PRES_METHOD NADI_LAT NADI_LON NADI_CAT NADI_WIND NADI_PRES WELLINGTON_LAT WELLINGTON_LON WELLINGTON_WIND WELLINGTON_PRES DS824_LAT DS824_LON DS824_STAGE DS824_WIND DS824_PRES TD9636_LAT TD9636_LON TD9636_STAGE TD9636_WIND TD9636_PRES TD9635_LAT TD9635_LON TD9635_WIND TD9635_PRES TD9635_ROCI NEUMANN_LAT NEUMANN_LON NEUMANN_CLASS NEUMANN_WIND NEUMANN_PRES MLC_LAT MLC_LON MLC_CLASS MLC_WIND MLC_PRES USA_GUST BOM_GUST BOM_GUST_PER REUNION_GUST REUNION_GUST_PER USA_SEAHGT USA_SEARAD_NE USA_SEARAD_SE USA_SEARAD_SW USA_SEARAD_NW STORM_SPEED STORM_DIR
1962047S13137 1962 22 SP EA NOT_NAMED 1962-02-16 05:30:00 NR -12.9000 136.900 1001 bom main 24 24 ______O_______ -1 -12.9000 136.900 1001 2 0
1962047S13137 1962 22 SP EA NOT_NAMED 1962-02-16 06:00:00 TS -12.8966 136.918 main 24 24 ______P__O____ -1 -12.8949 136.928 -12.9000 136.900 TC 30 1001 3 80
1962047S13137 1962 22 SP EA NOT_NAMED 1962-02-16 09:00:00 TS -12.8696 137.079 main 44 44 ______P__P____ -1 -12.8666 137.093 -12.8740 137.058 TC 3 83
1962047S13137 1962 22 SP EA NOT_NAMED 1962-02-16 12:00:00 TS -12.8569 137.258 main 63 63 ______P__P__O_ -1 -12.8473 137.255 -12.8552 137.214 TC -12.9000 137.400 TC 30 1000 3 90
1962047S13137 1962 22 SP EA NOT_NAMED 1962-02-16 15:00:00 TS -12.8720 137.421 main 73 73 ______P__P__P_ -1 -12.8451 137.411 -12.8511 137.368 TC -12.9675 137.547 TC 30 999 3 99
1962047S13137 1962 22 SP EA NOT_NAMED 1962-02-16 18:00:00 TS -12.9042 137.582 main 93 93 ______P__P__O_ -1 -12.8677 137.559 -12.8689 137.518 TC -13.0000 137.700 TC 30 999 3 103
1962047S13137 1962 22 SP EA NOT_NAMED 1962-02-16 21:00:00 TS -12.9414 137.739 main 101 101 ______P__P__P_ -1 -12.9231 137.696 -12.9161 137.662 TC -12.9850 137.858 TC 32 998 3 103
1962047S13137 1962 22 SP EA NOT_NAMED 1962-02-16 23:00:00 TS -12.9570 137.820 main 116 116 ______P__PO_P_ -1 -12.9821 137.780 -12.9675 137.755 TC -12.7000 137.700 1 -12.9855 137.956 TC 34 998 2 98
1962047S13137 1962 22 SP EA NOT_NAMED 1962-02-16 23:30:00 TS -12.9538 137.833 998 bom main 116 109 ______O__PP_P_ -1 -13.0000 137.800 998 -12.9832 137.778 TC -12.7278 137.722 1 -12.9912 137.978 TC 34 998 1 0
1962047S13137 1962 22 SP EA NOT_NAMED 1962-02-17 00:00:00 TS -12.9378 137.830 main 109 109 O_____P__OP_O_ jtwc_sh SH191962 -12.8000 137.700 -1 -13.0192 137.820 998 -13.0000 137.800 TC 35 998 -12.7556 137.744 1 -13.0000 138.000 TC 35 998 2 135
1962047S13137 1962 22 SP EA NOT_NAMED 1962-02-17 03:00:00 TS -13.0539 137.937 main 130 130 P_____P__PP_P_ SH191962 -12.9375 137.840 -1 -13.1569 137.932 998 -13.1241 137.932 TC 35 998 -12.9235 137.880 1 -13.1275 138.100 TC 35 998 4 140
1962047S13137 1962 22 SP EA NOT_NAMED 1962-02-17 06:00:00 TS -13.2077 138.062 main 146 141 O_____P__PP_O_ jtwc_sh SH191962 -13.1000 138.000 -1 -13.3204 138.049 998 -13.2761 138.068 TC 35 998 -13.0955 138.024 1 -13.3000 138.200 TC 35 998 4 140
1962047S13137 1962 22 SP EA NOT_NAMED 1962-02-17 09:00:00 TS -13.3773 138.217 main 147 147 P_____P__PP_P_ SH191962 -13.3000 138.192 -1 -13.4912 138.188 998 -13.4402 138.220 TC 35 998 -13.2749 138.183 1 -13.4575 138.328 TC 35 998 5 137
1962047S13137 1962 22 SP EA NOT_NAMED 1962-02-17 11:00:00 TS -13.4961 138.339 998 bom main 155 155 P_____O__PO_P_ SH191962 -13.4364 138.331 -1 -13.6000 138.300 998 -13.5482 138.336 TC 35 998 -13.4000 138.300 1 -13.5557 138.436 TC 35 998 5 134
1962047S13137 1962 22 SP EA NOT_NAMED 1962-02-17 12:00:00 TS -13.5526 138.405 main 163 163 O_____P__OP_O_ jtwc_sh SH191962 -13.5000 138.400 -1 -13.6511 138.366 998 -13.6000 138.400 TC 35 998 -13.4645 138.362 1 -13.6000 138.500 TC 35 998 5 127
1962047S13137 1962 22 SP EA NOT_NAMED 1962-02-17 15:00:00 TS -13.7014 138.616 main 184 184 P_____P__PP_P_ SH191962 -13.6500 138.593 -1 -13.7994 138.591 998 -13.7485 138.621 TC 35 998 -13.6604 138.565 1 -13.7000 138.735 TC 35 998 5 124
1962047S13137 1962 22 SP EA NOT_NAMED 1962-02-17 18:00:00 TS -13.8448 138.851 main 212 209 O_____P__PP_O_ jtwc_sh SH191962 -13.8000 138.800 -1 -13.9334 138.846 998 -13.8876 138.870 TC 35 998 -13.8481 138.789 1 -13.8000 139.000 TC 35 998 6 123
1962047S13137 1962 22 SP EA NOT_NAMED 1962-02-17 21:00:00 TS -14.0085 139.103 main 229 229 P_____P__PP_P_ SH191962 -14.0150 139.042 -1 -14.0439 139.117 998 -14.0078 139.134 TC 35 998 -14.0118 139.031 1 -13.9575 139.250 TC 35 998 6 122
1962047S13137 1962 22 SP EA NOT_NAMED 1962-02-17 23:00:00 TS -14.1046 139.276 998 bom main 238 227 P_____O__PO_P_ SH191962 -14.1478 139.214 -1 -14.1000 139.300 998 -14.0730 139.312 TC 35 998 -14.1000 139.200 1 -14.0588 139.417 TC 35 998 6 118
1962047S13137 1962 22 SP EA NOT_NAMED 1962-02-18 00:00:00 TS -14.1438 139.363 main 227 207 O_____P__OP_O_ jtwc_sh SH191962 -14.2000 139.300 -1 -14.1233 139.393 997 -14.1000 139.400 TC 35 998 -14.1396 139.283 1 -14.1000 139.500 TC 35 998 5 109
1962047S13137 1962 22 SP EA NOT_NAMED 1962-02-18 03:00:00 TS -14.2165 139.617 main 207 175 P_____P__PP_P_ SH191962 -14.2799 139.543 -1 -14.1717 139.675 997 -14.1618 139.650 TC 35 997 -14.2332 139.540 1 -14.1725 139.750 TC 35 997 5 102
1962047S13137 1962 22 SP EA NOT_NAMED 1962-02-18 06:00:00 TS -14.2465 139.876 main 175 152 O_____P__PP_O_ jtwc_sh SH191962 -14.3000 139.800 -1 -14.1946 139.943 997 -14.1949 139.900 TC 35 997 -14.2894 139.812 1 -14.2000 140.000 TC 35 997 5 96
1962047S13137 1962 22 SP EA NOT_NAMED 1962-02-18 08:00:00 TS -14.2584 140.053 997 bom main 152 152 P_____O__PP_P_ SH191962 -14.3133 139.992 -1 -14.2000 140.100 997 -14.2041 140.067 TC 35 997 -14.3061 140.002 1 -14.2133 140.167 TC 35 997 5 93
1962047S13137 1962 22 SP EA NOT_NAMED 1962-02-18 09:00:00 TS -14.2601 140.142 main 152 131 P_____P__PP_P_ SH191962 -14.3150 140.092 -1 -14.2020 140.168 997 -14.2055 140.150 TC 35 997 -14.3082 140.100 1 -14.2150 140.250 TC 35 997 5 89
1962047S13137 1962 22 SP EA NOT_NAMED 1962-02-18 11:00:00 TS -14.2547 140.321 997 bom main 131 120 P_____O__PO_P_ SH191962 -14.3083 140.297 -1 -14.2000 140.300 997 4 -14.2033 140.317 TC 35 997 -14.3000 140.300 2 -14.2083 140.417 TC 35 997 5 86
1962047S13137 1962 22 SP EA NOT_NAMED 1962-02-18 12:00:00 TS -14.2428 140.413 main 123 92 O_____P__OP_O_ jtwc_sh SH191962 -14.3000 140.400 -1 -14.1958 140.370 997 -14.2000 140.400 TC 35 997 -14.2897 140.403 2 -14.2000 140.500 TC 35 997 5 81
1962047S13137 1962 22 SP EA NOT_NAMED 1962-02-18 15:00:00 TS -14.1999 140.683 main 92 68 P_____P__PP_P_ SH191962 -14.2576 140.703 -1 -14.1707 140.595 997 -14.1839 140.650 TC 33 997 -14.2373 140.719 2 -14.1500 140.750 TC 35 997 5 79
1962047S13137 1962 22 SP EA NOT_NAMED 1962-02-18 18:00:00 TS -14.1453 140.947 main 68 39 O_____P__PP_O_ jtwc_sh SH191962 -14.2000 141.000 -1 -14.1375 140.841 998 -14.1602 140.900 TC 32 998 -14.1599 141.045 2 -14.1000 141.000 TC 35 998 5 79
1962047S13137 1962 22 SP EA NOT_NAMED 1962-02-18 21:00:00 TS -14.1027 141.201 main 39 21 ______P__PP_P_ SH191962 -1 -14.1094 141.109 998 -14.1314 141.150 TC 31 998 -14.0665 141.377 2 -14.0925 141.242 TC 35 998 5 83
1962047S13137 1962 22 SP EA NOT_NAMED 1962-02-18 23:00:00 TS -14.0919 141.371 999 bom main 21 21 ______O__PO_P_ SH191962 -1 -14.1000 141.300 999 -14.1106 141.317 TC 30 998 -14.0000 141.600 1 -14.0973 141.411 TC 35 998 5 89
1962047S13137 1962 22 SP EA NOT_NAMED 1962-02-19 00:00:00 TS -14.0998 141.444 main 21 10 ______P__O__O_ -1 -14.0996 141.399 999 -14.1000 141.400 TC 30 999 1 -14.1000 141.500 TC 35 999 5 93
1962047S13137 1962 22 SP EA NOT_NAMED 1962-02-19 01:00:00 TS -14.1000 141.547 999 bom main 10 0 ______O_____P_ -1 -14.1000 141.500 999 TC 1 -14.1000 141.594 TC 34 999 6 90
1962047S13137 1962 22 SP EA NOT_NAMED 1962-02-19 03:00:00 TS -14.1004 141.747 main 0 0 ______P_____P_ -1 -14.1008 141.701 999 TC 1 -14.1000 141.793 TC 32 999 6 90
1962047S13137 1962 22 SP EA NOT_NAMED 1962-02-19 06:00:00 TS -14.1005 142.058 main 0 0 ______P_____O_ -1 -14.1011 142.002 999 TC 1 -14.1000 142.100 TC 30 999 6 90
1962047S13137 1962 22 SP EA NOT_NAMED 1962-02-19 09:00:00 TS -14.1003 142.362 main 0 0 ______P_____P_ -1 -14.1006 142.301 999 TC 1 -14.1001 142.403 TC 30 999 6 90
1962047S13137 1962 22 SP EA NOT_NAMED 1962-02-19 11:00:00 TS -14.1000 142.567 1000 bom main 0 0 ______O_____P_ -1 -14.1000 142.500 1000 TC -14.1000 142.601 TC 30 999 7 90
1962047S13137 1962 22 SP EA NOT_NAMED 1962-02-19 12:00:00 TS -14.1000 142.700 main 0 ____________O_ -1 -14.1000 142.700 TC 30 1000 8 90

Digital Typhoon Data and Search

About IBTrACS Database

This database is a web-friendly format of International Best Track Archive for Climate Stewardship (IBTrACS), a global best track data archive curated by NOAA dating back to 1842.

Updated: 2021-10-08